createdAt,value
2024-05-09T00:00:39.973Z,11.24
2024-05-09T00:01:37.950Z,11.21
2024-05-09T00:02:37.928Z,11.21
2024-05-09T00:03:37.945Z,11.20
2024-05-09T00:04:37.943Z,11.19
2024-05-09T00:05:38.141Z,11.19
2024-05-09T00:06:37.885Z,11.17
2024-05-09T00:07:37.970Z,11.17
2024-05-09T00:08:37.859Z,11.19
2024-05-09T00:09:37.897Z,11.17
2024-05-09T00:10:39.264Z,11.16
2024-05-09T00:11:37.864Z,11.16
2024-05-09T00:12:37.812Z,11.17
2024-05-09T00:13:37.894Z,11.19
2024-05-09T00:14:37.831Z,11.17
2024-05-09T00:15:37.768Z,11.20
2024-05-09T00:16:37.779Z,11.17
2024-05-09T00:17:37.864Z,11.16
2024-05-09T00:18:37.776Z,11.13
2024-05-09T00:19:37.781Z,11.11
2024-05-09T00:20:40.633Z,11.10
2024-05-09T00:21:37.717Z,11.09
2024-05-09T00:22:37.694Z,11.09
2024-05-09T00:23:37.763Z,11.07
2024-05-09T00:24:37.710Z,11.03
2024-05-09T00:25:37.697Z,11.01
2024-05-09T00:26:37.724Z,10.99
2024-05-09T00:27:37.627Z,10.96
2024-05-09T00:28:37.634Z,10.95
2024-05-09T00:29:37.659Z,10.95
2024-05-09T00:30:37.774Z,10.94
2024-05-09T00:31:37.610Z,10.92
2024-05-09T00:32:37.735Z,10.91
2024-05-09T00:33:37.709Z,10.91
2024-05-09T00:34:37.581Z,10.91
2024-05-09T00:35:37.735Z,10.91
2024-05-09T00:36:37.550Z,10.91
2024-05-09T00:37:37.612Z,10.91
2024-05-09T00:38:37.629Z,10.91
2024-05-09T00:39:37.516Z,10.88
2024-05-09T00:40:40.470Z,10.88
2024-05-09T00:41:37.548Z,10.86
2024-05-09T00:42:37.475Z,10.84
2024-05-09T00:43:37.494Z,10.83
2024-05-09T00:44:37.463Z,10.78
2024-05-09T00:45:37.482Z,10.77
2024-05-09T00:46:37.443Z,10.76
2024-05-09T00:47:37.603Z,10.73
2024-05-09T00:48:37.546Z,10.70
2024-05-09T00:49:37.502Z,10.71
2024-05-09T00:50:38.224Z,10.68
2024-05-09T00:51:37.422Z,10.66
2024-05-09T00:52:37.375Z,10.66
2024-05-09T00:53:37.540Z,10.66
2024-05-09T00:54:37.325Z,10.66
2024-05-09T00:55:37.351Z,10.66
2024-05-09T00:56:37.394Z,10.65
2024-05-09T00:57:37.303Z,10.65
2024-05-09T00:58:37.330Z,10.65
2024-05-09T00:59:37.392Z,10.62
2024-05-09T01:00:40.057Z,10.62
2024-05-09T01:01:37.345Z,10.63
2024-05-09T01:02:37.359Z,10.62
2024-05-09T01:03:37.501Z,10.60
2024-05-09T01:04:37.276Z,10.58
2024-05-09T01:05:37.273Z,10.55
2024-05-09T01:06:37.202Z,10.53
2024-05-09T01:07:37.283Z,10.52
2024-05-09T01:08:37.446Z,10.47
2024-05-09T01:09:37.184Z,10.43
2024-05-09T01:10:37.291Z,10.40
2024-05-09T01:11:37.258Z,10.37
2024-05-09T01:12:37.204Z,10.36
2024-05-09T01:13:37.192Z,10.34
2024-05-09T01:14:37.311Z,10.30
2024-05-09T01:15:37.133Z,10.26
2024-05-09T01:16:37.149Z,10.26
2024-05-09T01:17:37.277Z,10.28
2024-05-09T01:18:37.190Z,10.26
2024-05-09T01:19:37.192Z,10.26
2024-05-09T01:20:41.938Z,10.26
2024-05-09T01:21:37.104Z,10.28
2024-05-09T01:22:37.037Z,10.28
2024-05-09T01:23:37.085Z,10.28
2024-05-09T01:24:37.028Z,10.28
2024-05-09T01:25:37.121Z,10.25
2024-05-09T01:26:37.071Z,10.25
2024-05-09T01:27:36.964Z,10.24
2024-05-09T01:28:37.005Z,10.24
2024-05-09T01:29:36.993Z,10.24
2024-05-09T01:30:37.925Z,10.22
2024-05-09T01:31:37.083Z,10.22
2024-05-09T01:32:37.030Z,10.19
2024-05-09T01:33:37.355Z,10.19
2024-05-09T01:34:36.904Z,10.18
2024-05-09T01:35:37.086Z,10.15
2024-05-09T01:36:36.880Z,10.14
2024-05-09T01:37:36.881Z,10.14
2024-05-09T01:38:37.067Z,10.12
2024-05-09T01:39:36.831Z,10.12
2024-05-09T01:40:39.483Z,10.12
2024-05-09T01:41:36.838Z,10.07
2024-05-09T01:42:36.813Z,10.06
2024-05-09T01:43:36.824Z,10.06
2024-05-09T01:44:36.829Z,10.04
2024-05-09T01:45:36.780Z,10.03
2024-05-09T01:46:36.760Z,10.01
2024-05-09T01:47:36.922Z,10.01
2024-05-09T01:48:36.861Z,10.01
2024-05-09T01:49:37.000Z,10.00
2024-05-09T01:50:40.581Z,9.99
2024-05-09T01:51:36.739Z,9.97
2024-05-09T01:52:36.717Z,9.99
2024-05-09T01:53:36.766Z,9.94
2024-05-09T01:54:36.680Z,9.91
2024-05-09T01:55:36.677Z,9.89
2024-05-09T01:56:36.679Z,9.86
2024-05-09T01:57:36.628Z,9.83
2024-05-09T01:58:36.628Z,9.82
2024-05-09T01:59:36.658Z,9.79
2024-05-09T02:00:40.620Z,9.78
2024-05-09T02:01:55.655Z,9.76
2024-05-09T02:02:36.669Z,9.75
2024-05-09T02:03:36.668Z,9.71
2024-05-09T02:04:36.621Z,9.66
2024-05-09T02:05:36.859Z,9.64
2024-05-09T02:06:36.548Z,9.60
2024-05-09T02:07:36.556Z,9.60
2024-05-09T02:08:36.571Z,9.58
2024-05-09T02:09:36.521Z,9.57
2024-05-09T02:10:36.491Z,9.57
2024-05-09T02:11:36.612Z,9.57
2024-05-09T02:12:36.480Z,9.57
2024-05-09T02:13:36.486Z,9.57
2024-05-09T02:14:36.461Z,9.58
2024-05-09T02:15:36.445Z,9.61
2024-05-09T02:16:36.430Z,9.63
2024-05-09T02:17:36.565Z,9.63
2024-05-09T02:18:36.490Z,9.61
2024-05-09T02:19:36.443Z,9.60
2024-05-09T02:20:37.138Z,9.61
2024-05-09T02:21:36.413Z,9.60
2024-05-09T02:22:36.369Z,9.60
2024-05-09T02:23:36.383Z,9.60
2024-05-09T02:24:36.343Z,9.60
2024-05-09T02:25:36.455Z,9.58
2024-05-09T02:26:36.353Z,9.57
2024-05-09T02:27:36.317Z,9.53
2024-05-09T02:28:36.303Z,9.52
2024-05-09T02:29:36.343Z,9.52
2024-05-09T02:30:40.582Z,9.50
2024-05-09T02:31:36.277Z,9.48
2024-05-09T02:32:36.363Z,9.45
2024-05-09T02:33:36.567Z,9.39
2024-05-09T02:34:36.276Z,9.32
2024-05-09T02:35:36.277Z,9.30
2024-05-09T02:36:36.202Z,9.28
2024-05-09T02:37:36.220Z,9.28
2024-05-09T02:38:36.304Z,9.25
2024-05-09T02:39:36.175Z,9.24
2024-05-09T02:40:38.601Z,9.24
2024-05-09T02:41:36.190Z,9.25
2024-05-09T02:42:36.148Z,9.27
2024-05-09T02:43:36.149Z,9.28
2024-05-09T02:44:36.158Z,9.28
2024-05-09T02:45:36.116Z,9.27
2024-05-09T02:46:36.091Z,9.24
2024-05-09T02:47:36.213Z,9.24
2024-05-09T02:48:36.230Z,9.21
2024-05-09T02:49:36.286Z,9.20
2024-05-09T02:50:39.171Z,9.16
2024-05-09T02:51:36.036Z,9.15
2024-05-09T02:52:36.046Z,9.16
2024-05-09T02:53:36.061Z,9.18
2024-05-09T02:54:36.036Z,9.20
2024-05-09T02:55:36.042Z,9.18
2024-05-09T02:56:36.031Z,9.18
2024-05-09T02:57:35.978Z,9.16
2024-05-09T02:58:35.967Z,9.15
2024-05-09T02:59:36.021Z,9.16
2024-05-09T03:00:39.861Z,9.16
2024-05-09T03:01:36.098Z,9.20
2024-05-09T03:02:35.967Z,9.20
2024-05-09T03:03:36.129Z,9.21
2024-05-09T03:04:36.041Z,9.23
2024-05-09T03:05:35.908Z,9.21
2024-05-09T03:06:35.881Z,9.23
2024-05-09T03:07:35.887Z,9.23
2024-05-09T03:08:35.990Z,9.21
2024-05-09T03:09:35.870Z,9.20
2024-05-09T03:10:38.119Z,9.21
2024-05-09T03:11:35.990Z,9.18
2024-05-09T03:12:37.882Z,9.16
2024-05-09T03:13:35.832Z,9.13
2024-05-09T03:14:35.864Z,9.13
2024-05-09T03:15:35.775Z,9.10
2024-05-09T03:16:35.767Z,9.12
2024-05-09T03:17:36.054Z,9.10
2024-05-09T03:18:35.839Z,9.06
2024-05-09T03:19:35.796Z,9.05
2024-05-09T03:20:36.847Z,9.04
2024-05-09T03:21:35.720Z,9.01
2024-05-09T03:22:35.720Z,8.97
2024-05-09T03:23:35.710Z,8.94
2024-05-09T03:24:35.682Z,8.90
2024-05-09T03:25:35.784Z,8.88
2024-05-09T03:26:35.724Z,8.86
2024-05-09T03:27:35.670Z,8.87
2024-05-09T03:28:35.644Z,8.86
2024-05-09T03:29:35.648Z,8.87
2024-05-09T03:30:41.115Z,8.88
2024-05-09T03:31:35.718Z,8.88
2024-05-09T03:32:35.786Z,8.87
2024-05-09T03:33:35.880Z,8.87
2024-05-09T03:34:35.586Z,8.86
2024-05-09T03:35:35.593Z,8.87
2024-05-09T03:36:35.564Z,8.86
2024-05-09T03:37:35.564Z,8.86
2024-05-09T03:38:35.640Z,8.88
2024-05-09T03:39:35.526Z,8.90
2024-05-09T03:40:35.537Z,8.91
2024-05-09T03:41:35.632Z,8.93
2024-05-09T03:42:35.476Z,8.93
2024-05-09T03:43:35.510Z,8.91
2024-05-09T03:44:35.528Z,8.91
2024-05-09T03:45:35.476Z,8.90
2024-05-09T03:46:35.448Z,8.91
2024-05-09T03:47:35.750Z,8.91
2024-05-09T03:48:35.486Z,8.91
2024-05-09T03:49:35.489Z,8.91
2024-05-09T03:50:36.560Z,8.90
2024-05-09T03:51:35.384Z,8.88
2024-05-09T03:52:35.390Z,8.88
2024-05-09T03:53:35.425Z,8.88
2024-05-09T03:54:35.364Z,8.88
2024-05-09T03:55:35.356Z,8.87
2024-05-09T03:56:35.398Z,8.87
2024-05-09T03:57:35.327Z,8.86
2024-05-09T03:58:35.313Z,8.86
2024-05-09T03:59:35.342Z,8.84
2024-05-09T04:00:38.666Z,8.86
2024-05-09T04:01:35.375Z,8.86
2024-05-09T04:02:35.329Z,8.86
2024-05-09T04:03:35.399Z,8.86
2024-05-09T04:04:35.294Z,8.87
2024-05-09T04:05:35.403Z,8.84
2024-05-09T04:06:35.231Z,8.86
2024-05-09T04:07:35.239Z,8.86
2024-05-09T04:08:35.261Z,8.88
2024-05-09T04:09:35.188Z,8.88
2024-05-09T04:10:35.684Z,8.91
2024-05-09T04:11:35.294Z,8.94
2024-05-09T04:12:35.206Z,8.97
2024-05-09T04:13:35.160Z,8.97
2024-05-09T04:14:35.214Z,9.01
2024-05-09T04:15:35.122Z,9.02
2024-05-09T04:16:35.124Z,9.02
2024-05-09T04:17:35.173Z,9.04
2024-05-09T04:18:35.313Z,9.05
2024-05-09T04:19:35.106Z,9.06
2024-05-09T04:20:39.123Z,9.06
2024-05-09T04:21:35.067Z,9.09
2024-05-09T04:22:35.047Z,9.09
2024-05-09T04:23:35.139Z,9.12
2024-05-09T04:24:35.025Z,9.12
2024-05-09T04:25:35.124Z,9.12
2024-05-09T04:26:35.093Z,9.12
2024-05-09T04:27:34.986Z,9.15
2024-05-09T04:28:34.988Z,9.15
2024-05-09T04:29:35.018Z,9.18
2024-05-09T04:30:39.183Z,9.16
2024-05-09T04:31:35.004Z,9.15
2024-05-09T04:32:35.108Z,9.15
2024-05-09T04:33:35.181Z,9.18
2024-05-09T04:34:34.988Z,9.20
2024-05-09T04:35:34.953Z,9.24
2024-05-09T04:36:34.899Z,9.28
2024-05-09T04:37:34.899Z,9.31
2024-05-09T04:38:35.012Z,9.35
2024-05-09T04:39:34.857Z,9.38
2024-05-09T04:40:36.839Z,9.40
2024-05-09T04:41:34.872Z,9.42
2024-05-09T04:42:34.837Z,9.43
2024-05-09T04:43:34.823Z,9.43
2024-05-09T04:44:34.867Z,9.45
2024-05-09T04:45:35.297Z,9.46
2024-05-09T04:46:34.793Z,9.48
2024-05-09T04:47:34.944Z,9.48
2024-05-09T04:48:34.802Z,9.50
2024-05-09T04:49:34.864Z,9.52
2024-05-09T04:50:38.249Z,9.56
2024-05-09T04:51:34.723Z,9.57
2024-05-09T04:52:34.766Z,9.61
2024-05-09T04:53:34.769Z,9.66
2024-05-09T04:54:36.580Z,9.70
2024-05-09T04:55:34.733Z,9.76
2024-05-09T04:56:34.740Z,9.81
2024-05-09T04:57:34.695Z,9.86
2024-05-09T04:58:34.650Z,9.88
2024-05-09T04:59:34.743Z,9.96
2024-05-09T05:00:37.335Z,10.00
2024-05-09T05:01:34.686Z,10.04
2024-05-09T05:02:34.714Z,10.09
2024-05-09T05:03:34.744Z,10.14
2024-05-09T05:04:34.606Z,10.17
2024-05-09T05:05:34.722Z,10.21
2024-05-09T05:06:34.581Z,10.24
2024-05-09T05:07:34.575Z,10.28
2024-05-09T05:08:34.640Z,10.32
2024-05-09T05:09:34.536Z,10.33
2024-05-09T05:10:36.567Z,10.37
2024-05-09T05:11:34.607Z,10.40
2024-05-09T05:12:34.643Z,10.42
2024-05-09T05:13:36.645Z,10.44
2024-05-09T05:14:34.519Z,10.51
2024-05-09T05:15:34.472Z,10.52
2024-05-09T05:16:34.449Z,10.55
2024-05-09T05:17:34.726Z,10.56
2024-05-09T05:18:34.510Z,10.60
2024-05-09T05:19:34.614Z,10.63
2024-05-09T05:20:34.650Z,10.66
2024-05-09T05:21:34.432Z,10.71
2024-05-09T05:22:34.398Z,10.74
2024-05-09T05:23:34.477Z,10.78
2024-05-09T05:24:34.377Z,10.81
2024-05-09T05:25:34.381Z,10.86
2024-05-09T05:26:34.464Z,10.88
2024-05-09T05:27:34.334Z,10.92
2024-05-09T05:28:34.326Z,10.95
2024-05-09T05:29:34.416Z,10.98
2024-05-09T05:30:35.127Z,11.02
2024-05-09T05:31:34.387Z,11.06
2024-05-09T05:32:34.414Z,11.10
2024-05-09T05:33:34.359Z,11.13
2024-05-09T05:34:34.279Z,11.17
2024-05-09T05:35:34.688Z,11.19
2024-05-09T05:36:34.286Z,11.24
2024-05-09T05:37:34.256Z,11.27
2024-05-09T05:38:34.278Z,11.29
2024-05-09T05:39:34.234Z,11.35
2024-05-09T05:40:37.179Z,11.38
2024-05-09T05:41:34.248Z,11.41
2024-05-09T05:42:34.179Z,11.47
2024-05-09T05:43:34.172Z,11.52
2024-05-09T05:44:34.200Z,11.56
2024-05-09T05:45:34.147Z,11.61
2024-05-09T05:46:34.135Z,11.67
2024-05-09T05:47:34.307Z,11.71
2024-05-09T05:48:34.371Z,11.77
2024-05-09T05:49:34.268Z,11.82
2024-05-09T05:50:36.808Z,11.86
2024-05-09T05:51:34.072Z,11.90
2024-05-09T05:52:34.082Z,11.96
2024-05-09T05:53:34.268Z,11.99
2024-05-09T05:54:34.040Z,12.05
2024-05-09T05:55:34.075Z,12.08
2024-05-09T05:56:34.154Z,12.11
2024-05-09T05:57:34.019Z,12.15
2024-05-09T05:58:34.049Z,12.21
2024-05-09T05:59:34.128Z,12.27
2024-05-09T06:00:38.660Z,12.31
2024-05-09T06:01:34.049Z,12.38
2024-05-09T06:02:34.977Z,12.42
2024-05-09T06:03:34.076Z,12.46
2024-05-09T06:04:34.040Z,12.52
2024-05-09T06:05:33.996Z,12.57
2024-05-09T06:06:33.910Z,12.62
2024-05-09T06:07:33.932Z,12.66
2024-05-09T06:08:34.007Z,12.69
2024-05-09T06:09:33.893Z,12.74
2024-05-09T06:10:38.850Z,12.81
2024-05-09T06:11:34.096Z,12.85
2024-05-09T06:12:33.871Z,12.92
2024-05-09T06:13:33.857Z,12.97
2024-05-09T06:14:33.982Z,13.03
2024-05-09T06:15:33.880Z,13.07
2024-05-09T06:16:33.832Z,13.09
2024-05-09T06:17:33.951Z,13.15
2024-05-09T06:18:34.045Z,13.22
2024-05-09T06:19:33.962Z,13.27
2024-05-09T06:20:36.746Z,13.36
2024-05-09T06:21:33.735Z,13.41
2024-05-09T06:22:33.734Z,13.44
2024-05-09T06:23:33.982Z,13.51
2024-05-09T06:24:33.785Z,13.55
2024-05-09T06:25:33.749Z,13.58
2024-05-09T06:26:33.807Z,13.62
2024-05-09T06:27:33.694Z,13.67
2024-05-09T06:28:33.672Z,13.63
2024-05-09T06:29:33.743Z,13.65
2024-05-09T06:30:38.922Z,13.71
2024-05-09T06:31:33.710Z,13.76
2024-05-09T06:32:33.802Z,13.81
2024-05-09T06:33:34.140Z,13.80
2024-05-09T06:34:33.711Z,13.84
2024-05-09T06:35:34.122Z,13.83
2024-05-09T06:36:33.593Z,13.87
2024-05-09T06:37:33.607Z,13.92
2024-05-09T06:38:33.774Z,13.96
2024-05-09T06:39:33.564Z,14.04
2024-05-09T06:40:37.544Z,14.10
2024-05-09T06:41:33.559Z,14.17
2024-05-09T06:42:33.547Z,14.21
2024-05-09T06:43:33.538Z,14.28
2024-05-09T06:44:33.591Z,14.35
2024-05-09T06:45:33.512Z,14.34
2024-05-09T06:46:33.487Z,14.32
2024-05-09T06:47:33.729Z,14.29
2024-05-09T06:48:33.599Z,14.31
2024-05-09T06:49:33.575Z,14.29
2024-05-09T06:50:37.585Z,14.28
2024-05-09T06:51:33.449Z,14.31
2024-05-09T06:52:33.406Z,14.37
2024-05-09T06:53:33.553Z,14.42
2024-05-09T06:54:33.400Z,14.47
2024-05-09T06:55:33.403Z,14.49
2024-05-09T06:56:33.399Z,14.53
2024-05-09T06:57:33.366Z,14.57
2024-05-09T06:58:33.375Z,14.64
2024-05-09T06:59:33.450Z,14.71
2024-05-09T07:00:38.926Z,14.71
2024-05-09T07:01:33.402Z,14.69
2024-05-09T07:02:33.382Z,14.71
2024-05-09T07:03:33.406Z,14.80
2024-05-09T07:04:33.380Z,14.83
2024-05-09T07:05:33.558Z,14.86
2024-05-09T07:06:33.258Z,14.90
2024-05-09T07:07:33.261Z,14.94
2024-05-09T07:08:33.401Z,15.02
2024-05-09T07:09:33.216Z,15.09
2024-05-09T07:10:35.489Z,15.15
2024-05-09T07:11:33.372Z,15.20
2024-05-09T07:12:33.355Z,15.24
2024-05-09T07:13:33.223Z,15.30
2024-05-09T07:14:34.763Z,15.35
2024-05-09T07:15:33.169Z,15.41
2024-05-09T07:16:33.167Z,15.43
2024-05-09T07:17:33.313Z,15.48
2024-05-09T07:18:33.330Z,15.54
2024-05-09T07:19:33.246Z,15.66
2024-05-09T07:20:34.993Z,15.70
2024-05-09T07:21:33.090Z,15.79
2024-05-09T07:22:33.083Z,15.85
2024-05-09T07:23:33.119Z,15.92
2024-05-09T07:24:33.053Z,16.04
2024-05-09T07:25:33.075Z,16.15
2024-05-09T07:26:33.116Z,16.25
2024-05-09T07:27:33.022Z,16.30
2024-05-09T07:28:33.014Z,16.37
2024-05-09T07:29:36.146Z,16.45
2024-05-09T07:30:34.624Z,16.52
2024-05-09T07:31:33.024Z,16.62
2024-05-09T07:32:33.082Z,16.74
2024-05-09T07:33:33.083Z,16.85
2024-05-09T07:34:33.113Z,16.96
2024-05-09T07:35:33.327Z,16.99
2024-05-09T07:36:32.946Z,16.98
2024-05-09T07:37:32.960Z,17.06
2024-05-09T07:38:32.961Z,17.08
2024-05-09T07:39:32.933Z,17.03
2024-05-09T07:40:36.375Z,16.98
2024-05-09T07:41:33.066Z,16.90
2024-05-09T07:42:32.896Z,16.89
2024-05-09T07:43:32.942Z,16.88
2024-05-09T07:44:32.897Z,16.86
2024-05-09T07:47:36.470Z,16.75
2024-05-09T07:50:53.135Z,16.70
2024-05-09T07:53:32.552Z,16.68
2024-05-09T07:53:49.485Z,16.53
2024-05-09T07:54:00.521Z,16.60
2024-05-09T07:54:56.307Z,16.70
2024-05-09T07:55:56.636Z,16.75
2024-05-09T07:56:56.180Z,16.80
2024-05-09T07:57:55.980Z,16.86
2024-05-09T07:58:56.362Z,16.90
2024-05-09T07:59:55.913Z,16.90
2024-05-09T08:00:56.060Z,16.92
2024-05-09T08:01:55.997Z,16.99
2024-05-09T08:02:55.982Z,16.98
2024-05-09T08:03:56.153Z,17.03
2024-05-09T08:04:55.927Z,17.06
2024-05-09T08:05:55.845Z,17.08
2024-05-09T08:06:55.869Z,17.11
2024-05-09T08:07:55.827Z,16.99
2024-05-09T08:08:56.050Z,16.88
2024-05-09T08:09:55.811Z,16.85
2024-05-09T08:10:55.861Z,16.89
2024-05-09T08:11:55.850Z,16.96
2024-05-09T08:12:55.799Z,17.00
2024-05-09T08:13:55.759Z,17.07
2024-05-09T08:14:55.717Z,17.13
2024-05-09T08:15:55.796Z,17.17
2024-05-09T08:16:55.750Z,17.20
2024-05-09T08:17:56.010Z,17.20
2024-05-09T08:18:55.747Z,17.25
2024-05-09T08:19:55.672Z,17.29
2024-05-09T08:20:55.652Z,17.35
2024-05-09T08:21:55.693Z,17.41
2024-05-09T08:22:55.643Z,17.47
2024-05-09T08:23:55.622Z,17.51
2024-05-09T08:24:55.740Z,17.54
2024-05-09T08:25:55.619Z,17.59
2024-05-09T08:26:55.581Z,17.57
2024-05-09T08:27:55.674Z,17.53
2024-05-09T08:28:55.587Z,17.51
2024-05-09T08:29:55.616Z,17.53
2024-05-09T08:30:55.749Z,17.54
2024-05-09T08:31:55.663Z,17.55
2024-05-09T08:32:55.639Z,17.59
2024-05-09T08:33:55.756Z,17.67
2024-05-09T08:34:55.677Z,17.74
2024-05-09T08:35:55.497Z,17.82
2024-05-09T08:36:57.544Z,17.85
2024-05-09T08:37:55.633Z,17.88
2024-05-09T08:38:55.491Z,17.91
2024-05-09T08:39:55.627Z,17.97
2024-05-09T08:40:55.475Z,18.00
2024-05-09T08:41:55.426Z,18.07
2024-05-09T08:42:55.510Z,18.15
2024-05-09T08:43:55.417Z,18.09
2024-05-09T08:44:55.411Z,18.13
2024-05-09T08:45:55.435Z,18.15
2024-05-09T08:46:55.401Z,18.18
2024-05-09T08:47:55.560Z,18.19
2024-05-09T08:48:55.578Z,18.25
2024-05-09T08:49:55.399Z,18.29
2024-05-09T08:50:55.394Z,18.25
2024-05-09T08:51:55.366Z,18.24
2024-05-09T08:52:55.318Z,18.22
2024-05-09T08:53:55.294Z,18.21
2024-05-09T08:54:55.372Z,18.21
2024-05-09T08:55:55.287Z,18.22
2024-05-09T08:56:55.263Z,18.29
2024-05-09T08:57:55.289Z,18.36
2024-05-09T08:58:55.266Z,18.42
2024-05-09T08:59:55.222Z,18.47
2024-05-09T09:00:55.411Z,18.57
2024-05-09T09:01:55.383Z,18.65
2024-05-09T09:02:55.265Z,18.68
2024-05-09T09:03:55.398Z,18.68
2024-05-09T09:04:55.287Z,18.72
2024-05-09T09:05:55.165Z,18.74
2024-05-09T09:06:57.722Z,18.76
2024-05-09T09:07:55.155Z,18.79
2024-05-09T09:08:55.130Z,18.77
2024-05-09T09:09:55.167Z,18.82
2024-05-09T09:10:55.149Z,18.86
2024-05-09T09:11:55.157Z,18.87
2024-05-09T09:12:55.148Z,18.82
2024-05-09T09:13:55.082Z,18.86
2024-05-09T09:14:55.085Z,18.90
2024-05-09T09:15:55.127Z,18.83
2024-05-09T09:16:55.050Z,18.84
2024-05-09T09:17:55.127Z,18.94
2024-05-09T09:18:55.247Z,18.99
2024-05-09T09:19:55.087Z,19.06
2024-05-09T09:20:55.294Z,19.01
2024-05-09T09:21:55.055Z,19.01
2024-05-09T09:22:54.985Z,19.05
2024-05-09T09:23:54.985Z,19.14
2024-05-09T09:24:55.029Z,19.17
2024-05-09T09:25:54.982Z,19.15
2024-05-09T09:26:54.971Z,19.11
2024-05-09T09:27:55.141Z,19.13
2024-05-09T09:28:54.936Z,19.10
2024-05-09T09:29:54.918Z,19.10
2024-05-09T09:30:54.940Z,19.20
2024-05-09T09:31:54.889Z,19.29
2024-05-09T09:32:55.000Z,19.38
2024-05-09T09:33:55.147Z,19.48
2024-05-09T09:34:54.937Z,19.50
2024-05-09T09:35:54.851Z,19.48
2024-05-09T09:36:54.927Z,19.50
2024-05-09T09:37:54.889Z,19.58
2024-05-09T09:38:54.824Z,19.65
2024-05-09T09:39:54.823Z,19.61
2024-05-09T09:40:54.873Z,19.66
2024-05-09T09:41:54.791Z,19.76
2024-05-09T09:42:54.840Z,19.83
2024-05-09T09:43:54.787Z,19.86
2024-05-09T09:45:03.759Z,19.91
2024-05-09T09:45:54.794Z,19.98
2024-05-09T09:46:54.791Z,20.09
2024-05-09T09:47:54.823Z,20.16
2024-05-09T09:48:54.840Z,20.18
2024-05-09T09:49:54.754Z,20.12
2024-05-09T09:50:54.667Z,20.13
2024-05-09T09:51:54.716Z,20.23
2024-05-09T09:52:54.653Z,20.28
2024-05-09T09:53:54.657Z,20.38
2024-05-09T09:54:54.996Z,20.47
2024-05-09T09:55:54.662Z,20.50
2024-05-09T09:56:54.617Z,20.51
2024-05-09T09:57:54.653Z,20.51
2024-05-09T09:58:54.587Z,20.46
2024-05-09T09:59:54.602Z,20.42
2024-05-09T10:00:54.791Z,20.33
2024-05-09T10:01:54.616Z,20.20
2024-05-09T10:02:54.588Z,20.03
2024-05-09T10:03:54.649Z,19.90
2024-05-09T10:04:54.653Z,19.83
2024-05-09T10:05:54.633Z,19.84
2024-05-09T10:06:54.555Z,19.78
2024-05-09T10:07:54.508Z,19.69
2024-05-09T10:08:54.509Z,19.57
2024-05-09T10:09:54.499Z,19.51
2024-05-09T10:10:54.660Z,19.48
2024-05-09T10:11:59.844Z,19.47
2024-05-09T10:12:54.473Z,19.40
2024-05-09T10:13:54.444Z,19.35
2024-05-09T10:14:54.436Z,19.33
2024-05-09T10:15:54.805Z,19.40
2024-05-09T10:16:54.425Z,19.46
2024-05-09T10:17:54.675Z,19.38
2024-05-09T10:18:54.628Z,19.51
2024-05-09T10:19:54.407Z,19.66
2024-05-09T10:20:54.374Z,19.80
2024-05-09T10:21:54.424Z,19.95
2024-05-09T10:22:54.326Z,20.03
2024-05-09T10:23:54.312Z,20.13
2024-05-09T10:24:54.377Z,20.27
2024-05-09T10:25:54.315Z,20.31
2024-05-09T10:26:54.290Z,20.34
2024-05-09T10:27:54.442Z,20.41
2024-05-09T10:28:54.269Z,20.46
2024-05-09T10:29:54.274Z,20.41
2024-05-09T10:30:54.279Z,20.23
2024-05-09T10:31:54.277Z,20.12
2024-05-09T10:32:54.338Z,20.09
2024-05-09T10:33:54.369Z,20.06
2024-05-09T10:34:54.223Z,19.93
2024-05-09T10:35:54.209Z,19.93
2024-05-09T10:36:54.262Z,20.06
2024-05-09T10:37:54.159Z,20.20
2024-05-09T10:38:54.167Z,20.31
2024-05-09T10:39:54.239Z,20.49
2024-05-09T10:40:54.139Z,20.62
2024-05-09T10:41:54.135Z,20.77
2024-05-09T10:42:54.218Z,20.89
2024-05-09T10:43:54.100Z,20.96
2024-05-09T10:44:54.088Z,20.90
2024-05-09T10:45:54.216Z,20.89
2024-05-09T10:46:54.121Z,20.96
2024-05-09T10:47:54.309Z,21.04
2024-05-09T10:48:54.268Z,21.01
2024-05-09T10:49:54.116Z,21.01
2024-05-09T10:50:54.020Z,20.80
2024-05-09T10:51:54.101Z,20.76
2024-05-09T10:52:53.998Z,20.86
2024-05-09T10:53:53.986Z,20.96
2024-05-09T10:54:54.078Z,20.99
2024-05-09T10:55:53.976Z,21.01
2024-05-09T10:56:53.955Z,21.01
2024-05-09T10:57:53.996Z,20.91
2024-05-09T10:58:53.952Z,20.98
2024-05-09T10:59:53.928Z,20.96
2024-05-09T11:00:54.068Z,20.99
2024-05-09T11:01:54.068Z,20.95
2024-05-09T11:02:53.932Z,21.05
2024-05-09T11:03:54.086Z,21.17
2024-05-09T11:04:54.126Z,21.16
2024-05-09T11:05:53.936Z,21.13
2024-05-09T11:06:53.914Z,21.21
2024-05-09T11:07:53.877Z,21.35
2024-05-09T11:08:53.815Z,21.46
2024-05-09T11:09:53.904Z,21.60
2024-05-09T11:10:53.910Z,21.67
2024-05-09T11:11:53.829Z,21.81
2024-05-09T11:12:53.846Z,21.99
2024-05-09T11:13:53.807Z,21.97
2024-05-09T11:14:53.775Z,21.83
2024-05-09T11:15:53.849Z,21.44
2024-05-09T11:16:53.734Z,21.27
2024-05-09T11:17:53.799Z,21.39
2024-05-09T11:18:53.906Z,21.56
2024-05-09T11:19:53.740Z,21.76
2024-05-09T11:20:53.711Z,21.82
2024-05-09T11:21:53.750Z,21.90
2024-05-09T11:22:53.671Z,21.91
2024-05-09T11:23:53.681Z,21.98
2024-05-09T11:24:53.716Z,22.02
2024-05-09T11:25:53.646Z,21.99
2024-05-09T11:26:53.630Z,21.90
2024-05-09T11:27:53.665Z,21.91
2024-05-09T11:28:53.612Z,22.06
2024-05-09T11:29:53.624Z,22.27
2024-05-09T11:30:53.645Z,22.46
2024-05-09T11:31:53.639Z,22.59
2024-05-09T11:32:53.660Z,22.71
2024-05-09T11:33:53.736Z,22.77
2024-05-09T11:34:53.538Z,22.65
2024-05-09T11:35:53.547Z,22.50
2024-05-09T11:36:53.614Z,22.23
2024-05-09T11:37:53.520Z,21.98
2024-05-09T11:38:53.529Z,21.76
2024-05-09T11:39:53.663Z,21.66
2024-05-09T11:40:53.628Z,21.72
2024-05-09T11:41:53.501Z,21.71
2024-05-09T11:42:53.713Z,21.83
2024-05-09T11:43:53.445Z,21.97
2024-05-09T11:44:53.447Z,22.07
2024-05-09T11:45:53.456Z,22.04
2024-05-09T11:46:53.413Z,21.99
2024-05-09T11:47:53.552Z,21.91
2024-05-09T11:48:53.602Z,21.82
2024-05-09T11:49:53.490Z,21.88
2024-05-09T11:50:53.382Z,21.92
2024-05-09T11:51:53.468Z,21.91
2024-05-09T11:52:53.347Z,21.99
2024-05-09T11:53:53.343Z,22.14
2024-05-09T11:54:53.396Z,22.17
2024-05-09T11:55:53.321Z,22.17
2024-05-09T11:56:53.298Z,22.29
2024-05-09T11:57:53.415Z,22.46
2024-05-09T11:58:53.346Z,22.44
2024-05-09T11:59:53.286Z,22.29
2024-05-09T12:00:53.489Z,22.23
2024-05-09T12:01:53.468Z,22.27
2024-05-09T12:02:53.326Z,22.29
2024-05-09T12:03:53.455Z,22.27
2024-05-09T12:04:53.297Z,22.27
2024-05-09T12:05:53.286Z,22.22
2024-05-09T12:06:53.256Z,22.17
2024-05-09T12:07:53.189Z,22.14
2024-05-09T12:08:53.189Z,22.16
2024-05-09T12:09:53.207Z,22.22
2024-05-09T12:10:53.613Z,22.38
2024-05-09T12:11:53.409Z,22.41
2024-05-09T12:12:53.189Z,22.35
2024-05-09T12:13:53.129Z,22.22
2024-05-09T12:14:53.121Z,22.12
2024-05-09T12:15:53.144Z,22.06
2024-05-09T12:16:53.185Z,21.99
2024-05-09T12:17:53.272Z,21.98
2024-05-09T12:18:53.236Z,21.97
2024-05-09T12:19:53.069Z,22.07
2024-05-09T12:20:53.055Z,22.10
2024-05-09T12:21:53.074Z,22.23
2024-05-09T12:22:53.022Z,22.37
2024-05-09T12:23:53.063Z,22.34
2024-05-09T12:24:53.084Z,22.23
2024-05-09T12:25:53.158Z,22.14
2024-05-09T12:26:52.977Z,21.98
2024-05-09T12:27:53.045Z,21.91
2024-05-09T12:28:52.961Z,21.92
2024-05-09T12:29:52.961Z,22.01
2024-05-09T12:30:52.989Z,22.09
2024-05-09T12:31:52.988Z,22.23
2024-05-09T12:32:53.193Z,22.34
2024-05-09T12:33:52.974Z,22.47
2024-05-09T12:34:52.892Z,22.53
2024-05-09T12:35:52.893Z,22.53
2024-05-09T12:36:52.951Z,22.62
2024-05-09T12:37:52.862Z,22.72
2024-05-09T12:38:52.855Z,22.77
2024-05-09T12:39:52.878Z,22.74
2024-05-09T12:40:53.111Z,22.74
2024-05-09T12:41:52.828Z,22.74
2024-05-09T12:42:52.859Z,22.72
2024-05-09T12:43:52.803Z,22.72
2024-05-09T12:44:52.785Z,22.69
2024-05-09T12:45:52.827Z,22.74
2024-05-09T12:46:52.783Z,22.75
2024-05-09T12:47:52.853Z,22.80
2024-05-09T12:48:53.086Z,22.72
2024-05-09T12:49:52.799Z,22.59
2024-05-09T12:50:52.764Z,22.56
2024-05-09T12:51:52.770Z,22.57
2024-05-09T12:52:52.725Z,22.52
2024-05-09T12:53:52.735Z,22.52
2024-05-09T12:54:52.739Z,22.60
2024-05-09T12:55:56.788Z,22.67
2024-05-09T12:56:52.658Z,22.72
2024-05-09T12:57:52.734Z,22.84
2024-05-09T12:58:52.624Z,22.92
2024-05-09T12:59:52.628Z,22.90
2024-05-09T13:00:53.208Z,22.92
2024-05-09T13:01:52.712Z,22.93
2024-05-09T13:02:52.656Z,22.93